createdAt,value
2022-08-29T00:02:00.063Z,13.00
2022-08-29T00:04:27.259Z,13.10
2022-08-29T00:06:54.702Z,13.10
2022-08-29T00:09:21.695Z,13.00
2022-08-29T00:11:48.783Z,13.00
2022-08-29T00:14:21.057Z,13.00
2022-08-29T00:16:50.596Z,13.00
2022-08-29T00:19:18.066Z,13.00
2022-08-29T00:21:45.119Z,13.00
2022-08-29T00:24:12.141Z,13.10
2022-08-29T00:26:39.516Z,13.10
2022-08-29T00:29:09.330Z,13.10
2022-08-29T00:31:36.317Z,13.10
2022-08-29T00:34:03.854Z,13.10
2022-08-29T00:36:31.361Z,13.00
2022-08-29T00:38:58.445Z,13.10
2022-08-29T00:41:26.624Z,13.10
2022-08-29T00:43:53.608Z,13.00
2022-08-29T00:46:41.887Z,13.10
2022-08-29T00:49:32.205Z,13.10
2022-08-29T00:52:04.212Z,13.10
2022-08-29T00:54:31.732Z,13.00
2022-08-29T00:56:59.912Z,13.00
2022-08-29T00:59:36.332Z,13.00
2022-08-29T01:02:05.061Z,13.10
2022-08-29T01:04:33.670Z,13.10
2022-08-29T01:07:01.070Z,13.10
2022-08-29T01:09:29.551Z,13.10
2022-08-29T01:12:16.325Z,13.10
2022-08-29T01:14:53.493Z,13.10
2022-08-29T01:17:33.290Z,13.00
2022-08-29T01:20:41.294Z,13.00
2022-08-29T01:23:36.153Z,13.00
2022-08-29T01:26:05.098Z,13.00
2022-08-29T01:28:36.183Z,13.00
2022-08-29T01:31:08.317Z,13.00
2022-08-29T01:33:52.094Z,13.00
2022-08-29T01:36:32.310Z,12.90
2022-08-29T01:39:00.087Z,13.00
2022-08-29T01:41:28.097Z,13.00
2022-08-29T01:43:56.746Z,13.00
2022-08-29T01:46:28.577Z,13.10
2022-08-29T01:48:57.584Z,13.00
2022-08-29T01:51:26.225Z,13.00
2022-08-29T01:53:53.448Z,13.00
2022-08-29T01:56:24.190Z,13.10
2022-08-29T01:58:53.865Z,13.10
2022-08-29T02:01:25.502Z,13.10
2022-08-29T02:03:52.606Z,13.00
2022-08-29T02:06:20.504Z,13.00
2022-08-29T02:08:47.979Z,13.00
2022-08-29T02:11:16.946Z,13.00
2022-08-29T02:13:48.252Z,13.10
2022-08-29T02:16:15.844Z,13.00
2022-08-29T02:18:43.197Z,13.00
2022-08-29T02:21:12.548Z,13.00
2022-08-29T02:23:40.809Z,13.00
2022-08-29T02:26:08.315Z,13.00
2022-08-29T02:28:37.156Z,13.10
2022-08-29T02:31:06.033Z,13.00
2022-08-29T02:33:33.170Z,13.00
2022-08-29T02:36:01.220Z,13.00
2022-08-29T02:38:29.075Z,13.00
2022-08-29T02:40:56.674Z,13.00
2022-08-29T02:43:24.457Z,13.00
2022-08-29T02:45:51.734Z,13.00
2022-08-29T02:48:19.228Z,13.10
2022-08-29T02:50:53.738Z,13.00
2022-08-29T02:53:25.026Z,13.10
2022-08-29T02:55:54.893Z,13.10
2022-08-29T02:58:23.445Z,13.00
2022-08-29T03:00:50.975Z,13.00
2022-08-29T03:03:19.322Z,13.00
2022-08-29T03:05:46.702Z,13.00
2022-08-29T03:08:18.942Z,13.10
2022-08-29T03:10:46.168Z,13.10
2022-08-29T03:13:13.499Z,13.10
2022-08-29T03:15:41.268Z,13.10
2022-08-29T03:18:08.488Z,13.00
2022-08-29T03:20:37.703Z,13.10
2022-08-29T03:23:05.559Z,13.00
2022-08-29T03:25:33.208Z,13.00
2022-08-29T03:28:00.564Z,13.10
2022-08-29T03:30:28.416Z,13.20
2022-08-29T03:32:56.007Z,13.10
2022-08-29T03:35:23.804Z,13.00
2022-08-29T03:37:54.036Z,13.10
2022-08-29T03:40:21.210Z,13.10
2022-08-29T03:42:48.446Z,13.00
2022-08-29T03:45:18.399Z,13.00
2022-08-29T03:47:45.842Z,13.00
2022-08-29T03:50:15.551Z,13.00
2022-08-29T03:52:43.927Z,13.00
2022-08-29T03:55:13.110Z,13.00
2022-08-29T03:57:40.193Z,12.90
2022-08-29T04:00:10.747Z,12.90
2022-08-29T04:02:38.150Z,12.90
2022-08-29T04:05:08.745Z,13.00
2022-08-29T04:07:50.330Z,13.00
2022-08-29T04:10:24.348Z,13.00
2022-08-29T04:12:54.662Z,13.00
2022-08-29T04:15:23.185Z,12.90
2022-08-29T04:17:57.753Z,12.90
2022-08-29T04:20:27.644Z,12.90
2022-08-29T04:22:57.075Z,13.00
2022-08-29T04:25:26.718Z,12.90
2022-08-29T04:27:55.732Z,12.80
2022-08-29T04:30:25.131Z,13.00
2022-08-29T04:32:52.786Z,13.00
2022-08-29T04:35:20.059Z,12.90
2022-08-29T04:37:47.445Z,12.90
2022-08-29T04:40:18.240Z,12.90
2022-08-29T04:42:47.238Z,12.80
2022-08-29T04:45:16.393Z,12.90
2022-08-29T04:47:43.926Z,12.80
2022-08-29T04:50:15.306Z,12.90
2022-08-29T04:52:43.916Z,12.90
2022-08-29T04:55:12.176Z,12.90
2022-08-29T04:57:39.865Z,13.00
2022-08-29T05:00:14.087Z,13.00
2022-08-29T05:02:42.795Z,13.00
2022-08-29T05:05:12.545Z,13.10
2022-08-29T05:07:40.726Z,13.00
2022-08-29T05:10:17.406Z,13.00
2022-08-29T05:12:46.921Z,13.10
2022-08-29T05:15:15.314Z,13.10
2022-08-29T05:17:42.907Z,13.10
2022-08-29T05:20:10.494Z,13.10
2022-08-29T05:22:39.152Z,13.10
2022-08-29T05:25:06.751Z,13.20
2022-08-29T05:27:34.271Z,13.10
2022-08-29T05:30:02.752Z,13.30
2022-08-29T05:32:29.902Z,13.20
2022-08-29T05:34:57.806Z,13.20
2022-08-29T05:37:24.998Z,13.20
2022-08-29T05:39:52.246Z,13.20
2022-08-29T05:42:22.306Z,13.40
2022-08-29T05:44:49.883Z,13.20
2022-08-29T05:47:18.226Z,13.20
2022-08-29T05:49:46.674Z,13.30
2022-08-29T05:52:16.412Z,13.20
2022-08-29T05:54:44.280Z,13.30
2022-08-29T05:57:18.688Z,13.20
2022-08-29T05:59:50.747Z,13.20
2022-08-29T06:02:19.007Z,13.40
2022-08-29T06:04:46.661Z,13.30
2022-08-29T06:07:14.140Z,13.20
2022-08-29T06:09:42.668Z,13.30
2022-08-29T06:12:11.758Z,13.20
2022-08-29T06:14:38.709Z,13.40
2022-08-29T06:17:08.007Z,13.50
2022-08-29T06:19:37.103Z,13.60
2022-08-29T06:22:05.759Z,13.50
2022-08-29T06:24:39.144Z,13.50
2022-08-29T06:27:06.944Z,13.40
2022-08-29T06:29:34.675Z,13.50
2022-08-29T06:32:11.428Z,13.50
2022-08-29T06:34:38.527Z,13.60
2022-08-29T06:37:05.968Z,13.60
2022-08-29T06:39:33.082Z,13.70
2022-08-29T06:41:59.980Z,13.60
2022-08-29T06:44:30.723Z,13.60
2022-08-29T06:46:59.010Z,13.60
2022-08-29T06:49:27.704Z,13.80
2022-08-29T06:51:58.015Z,13.80
2022-08-29T06:54:27.886Z,13.80
2022-08-29T06:56:56.223Z,14.00
2022-08-29T06:59:23.377Z,14.00
2022-08-29T07:01:50.864Z,14.30
2022-08-29T07:04:20.588Z,14.70
2022-08-29T07:06:48.275Z,15.30
2022-08-29T07:09:15.463Z,15.20
2022-08-29T07:11:42.922Z,15.10
2022-08-29T07:14:11.432Z,15.20
2022-08-29T07:16:40.103Z,15.10
2022-08-29T07:19:08.924Z,15.00
2022-08-29T07:21:36.015Z,15.00
2022-08-29T07:24:03.773Z,15.20
2022-08-29T07:26:38.893Z,15.40
2022-08-29T07:29:10.290Z,15.60
2022-08-29T07:31:39.146Z,15.70
2022-08-29T07:34:06.774Z,15.70
2022-08-29T07:36:34.790Z,16.00
2022-08-29T07:39:04.446Z,16.00
2022-08-29T07:41:31.678Z,16.60
2022-08-29T07:43:58.856Z,16.10
2022-08-29T07:46:27.074Z,16.20
2022-08-29T07:48:54.420Z,16.20
2022-08-29T07:51:23.263Z,16.20
2022-08-29T07:53:51.538Z,16.70
2022-08-29T07:56:23.114Z,16.80
2022-08-29T07:58:52.046Z,16.80
2022-08-29T08:01:20.916Z,17.30
2022-08-29T08:03:48.862Z,17.20
2022-08-29T08:06:17.586Z,17.50
2022-08-29T08:08:44.633Z,17.40
2022-08-29T08:11:11.606Z,17.30
2022-08-29T08:13:39.316Z,16.90
2022-08-29T08:16:09.088Z,16.60
2022-08-29T08:18:38.172Z,16.50
2022-08-29T08:21:05.638Z,16.70
2022-08-29T08:23:33.477Z,16.80
2022-08-29T08:26:01.218Z,17.00
2022-08-29T08:28:30.658Z,17.30
2022-08-29T08:31:05.123Z,17.40
2022-08-29T08:33:35.779Z,17.80
2022-08-29T08:36:04.203Z,17.70
2022-08-29T08:38:31.671Z,17.60
2022-08-29T08:41:13.435Z,17.50
2022-08-29T08:44:00.490Z,17.40
2022-08-29T08:46:58.615Z,17.40
2022-08-29T08:49:46.316Z,17.60
2022-08-29T08:52:22.801Z,17.60
2022-08-29T08:54:55.678Z,17.50
2022-08-29T08:57:25.627Z,17.80
2022-08-29T08:59:59.110Z,17.60
2022-08-29T09:02:37.738Z,17.70
2022-08-29T09:05:30.224Z,17.50
2022-08-29T09:08:46.080Z,17.60
2022-08-29T09:11:25.179Z,17.50
2022-08-29T09:14:21.880Z,17.90
2022-08-29T09:16:52.607Z,17.80
2022-08-29T09:19:19.861Z,17.80
2022-08-29T09:21:59.250Z,17.70
2022-08-29T09:24:38.886Z,17.80
2022-08-29T09:27:06.577Z,17.80
2022-08-29T09:29:33.727Z,18.10
2022-08-29T09:32:11.866Z,18.50
2022-08-29T09:35:07.407Z,18.60
2022-08-29T09:37:35.238Z,18.20
2022-08-29T09:40:12.725Z,18.40
2022-08-29T09:42:52.293Z,18.50
2022-08-29T09:45:27.746Z,18.50
2022-08-29T09:48:15.539Z,18.20
2022-08-29T09:50:42.971Z,18.20
2022-08-29T09:53:14.412Z,18.00
2022-08-29T09:55:53.046Z,17.90
2022-08-29T09:58:20.135Z,17.70
2022-08-29T10:01:11.843Z,17.60
2022-08-29T10:03:51.643Z,17.60
2022-08-29T10:06:25.089Z,17.60
2022-08-29T10:09:13.055Z,17.70
2022-08-29T10:12:03.780Z,18.00
2022-08-29T10:14:53.608Z,18.10
2022-08-29T10:17:48.080Z,17.80
2022-08-29T10:20:15.245Z,18.00
2022-08-29T10:23:04.990Z,17.80
2022-08-29T10:25:36.379Z,17.70
2022-08-29T10:28:29.889Z,17.70
2022-08-29T10:31:16.921Z,17.60
2022-08-29T10:33:55.293Z,17.50
2022-08-29T10:36:31.175Z,17.60
2022-08-29T10:39:19.238Z,17.60
2022-08-29T10:42:00.660Z,17.50
2022-08-29T10:44:40.847Z,17.50
2022-08-29T10:47:25.969Z,17.50
2022-08-29T10:50:42.599Z,17.50
2022-08-29T10:53:18.283Z,17.20
2022-08-29T10:55:57.924Z,17.30
2022-08-29T10:58:37.945Z,17.20
2022-08-29T11:01:19.008Z,17.10
2022-08-29T11:04:07.495Z,16.90
2022-08-29T11:06:43.211Z,17.20
2022-08-29T11:09:16.577Z,17.20
2022-08-29T11:11:59.484Z,17.40
2022-08-29T11:14:38.318Z,17.40
2022-08-29T11:17:10.167Z,17.20
2022-08-29T11:20:20.446Z,17.20
2022-08-29T11:23:10.246Z,17.30
2022-08-29T11:25:42.853Z,17.20
2022-08-29T11:28:50.812Z,17.10
2022-08-29T11:31:56.217Z,17.00
2022-08-29T11:34:32.385Z,17.30
2022-08-29T11:37:17.903Z,17.20
2022-08-29T11:40:05.987Z,17.20
2022-08-29T11:42:53.464Z,17.20
2022-08-29T11:45:37.604Z,17.20
2022-08-29T11:48:31.478Z,17.10
2022-08-29T11:50:59.942Z,17.00
2022-08-29T11:53:35.226Z,17.10
2022-08-29T11:56:14.310Z,17.10
2022-08-29T11:58:51.233Z,17.10
2022-08-29T12:01:36.848Z,17.10
2022-08-29T12:04:06.652Z,17.00
2022-08-29T12:06:55.522Z,17.00
2022-08-29T12:09:34.102Z,17.10
2022-08-29T12:12:05.168Z,17.00
2022-08-29T12:14:38.056Z,17.20
2022-08-29T12:17:16.825Z,17.10
2022-08-29T12:20:00.034Z,17.20
2022-08-29T12:22:55.750Z,17.20
2022-08-29T12:25:59.301Z,17.10
2022-08-29T12:28:43.829Z,17.10
2022-08-29T12:31:38.071Z,17.30
2022-08-29T12:34:14.443Z,17.20
2022-08-29T12:37:02.215Z,17.60
2022-08-29T12:39:44.048Z,17.30
2022-08-29T12:42:40.012Z,17.70
2022-08-29T12:45:19.079Z,17.60
2022-08-29T12:47:50.583Z,17.90
2022-08-29T12:50:34.015Z,18.20
2022-08-29T12:53:07.246Z,18.90
2022-08-29T12:55:40.743Z,18.50
2022-08-29T12:58:10.235Z,18.70
2022-08-29T13:00:38.358Z,18.80
2022-08-29T13:03:17.842Z,18.70
2022-08-29T13:05:45.552Z,19.00
2022-08-29T13:08:27.494Z,18.50
2022-08-29T13:10:58.517Z,18.10
2022-08-29T13:13:27.767Z,17.80
2022-08-29T13:15:57.621Z,17.90
2022-08-29T13:18:24.829Z,18.00
2022-08-29T13:21:12.872Z,17.70
2022-08-29T13:23:46.063Z,17.40
2022-08-29T13:26:14.398Z,17.30
2022-08-29T13:28:41.342Z,17.40
2022-08-29T13:31:16.625Z,17.40
2022-08-29T13:33:49.498Z,17.20
2022-08-29T13:36:40.528Z,17.30
2022-08-29T13:39:24.964Z,17.40
2022-08-29T13:42:12.809Z,17.40
2022-08-29T13:44:48.971Z,17.20
2022-08-29T13:47:25.376Z,17.30
2022-08-29T13:50:01.593Z,17.40
2022-08-29T13:52:31.707Z,17.60
2022-08-29T13:54:59.591Z,17.50
2022-08-29T13:57:29.367Z,17.10
2022-08-29T14:00:01.315Z,17.20
2022-08-29T14:02:28.918Z,17.40
2022-08-29T14:04:56.317Z,17.20
2022-08-29T14:07:27.342Z,17.00
2022-08-29T14:09:54.663Z,17.20
2022-08-29T14:12:32.874Z,17.30
2022-08-29T14:15:09.362Z,17.20
2022-08-29T14:17:41.519Z,17.30
2022-08-29T14:20:12.711Z,17.50
2022-08-29T14:22:40.176Z,17.50
2022-08-29T14:25:09.251Z,17.30
2022-08-29T14:27:37.246Z,17.40
2022-08-29T14:30:07.031Z,17.20
2022-08-29T14:32:34.389Z,17.20
2022-08-29T14:35:02.052Z,17.30
2022-08-29T14:37:29.055Z,17.10
2022-08-29T14:39:56.377Z,16.80
2022-08-29T14:42:26.765Z,17.00
2022-08-29T14:44:53.792Z,16.90
2022-08-29T14:47:20.791Z,16.90
2022-08-29T14:49:48.013Z,17.00
2022-08-29T14:52:15.349Z,17.30
2022-08-29T14:54:43.575Z,17.30
2022-08-29T14:57:12.398Z,17.30
2022-08-29T14:59:39.959Z,17.20
2022-08-29T15:02:08.671Z,17.30
2022-08-29T15:04:37.614Z,17.30
2022-08-29T15:07:06.561Z,17.20
2022-08-29T15:09:33.771Z,17.10
2022-08-29T15:12:00.900Z,17.00
2022-08-29T15:14:30.048Z,17.00
2022-08-29T15:16:58.033Z,17.10
2022-08-29T15:19:53.782Z,17.00
2022-08-29T15:22:13.191Z,17.10
2022-08-29T15:24:40.464Z,16.90
2022-08-29T15:27:08.423Z,16.70
2022-08-29T15:29:37.490Z,16.70
2022-08-29T15:32:05.952Z,16.50
2022-08-29T15:34:33.565Z,16.50
2022-08-29T15:37:01.324Z,16.50
2022-08-29T15:39:29.094Z,16.40
2022-08-29T15:41:57.546Z,16.40
2022-08-29T15:44:25.398Z,16.30
2022-08-29T15:46:52.717Z,16.40
2022-08-29T15:49:22.423Z,16.40
2022-08-29T15:51:55.169Z,16.60
2022-08-29T15:54:23.296Z,16.50
2022-08-29T15:56:50.671Z,16.50
2022-08-29T15:59:30.966Z,16.50
2022-08-29T16:02:10.547Z,16.30
2022-08-29T16:04:39.359Z,16.40
2022-08-29T16:07:06.484Z,16.30
2022-08-29T16:09:33.389Z,16.50
2022-08-29T16:12:02.742Z,16.50
2022-08-29T16:17:17.421Z,16.10
2022-08-29T16:19:44.437Z,15.90
2022-08-29T16:22:13.207Z,16.00
2022-08-29T16:24:40.628Z,16.00
2022-08-29T16:27:07.981Z,16.00
2022-08-29T16:29:35.348Z,15.90
2022-08-29T16:32:03.523Z,15.70
2022-08-29T16:34:30.489Z,15.70
2022-08-29T16:37:01.904Z,15.70
2022-08-29T16:39:29.753Z,15.60
2022-08-29T16:41:57.012Z,15.70
2022-08-29T16:44:24.629Z,15.70
2022-08-29T16:46:51.889Z,15.70
2022-08-29T16:49:19.132Z,15.80
2022-08-29T16:51:46.124Z,15.60
2022-08-29T16:54:13.589Z,15.50
2022-08-29T16:56:40.736Z,15.60
2022-08-29T16:59:07.989Z,15.50
2022-08-29T17:01:44.758Z,15.50
2022-08-29T17:04:14.866Z,15.50
2022-08-29T17:06:42.329Z,15.40
2022-08-29T17:09:12.618Z,15.40
2022-08-29T17:11:39.630Z,15.40
2022-08-29T17:14:08.252Z,15.50
2022-08-29T17:16:37.159Z,15.40
2022-08-29T17:19:06.788Z,15.40
2022-08-29T17:21:35.170Z,15.50
2022-08-29T17:24:05.560Z,15.40
2022-08-29T17:26:33.257Z,15.50
2022-08-29T17:29:00.326Z,15.20
2022-08-29T17:31:27.338Z,15.30
2022-08-29T17:33:54.364Z,15.20
2022-08-29T17:36:21.484Z,15.20
2022-08-29T17:38:48.708Z,15.10
2022-08-29T17:41:19.356Z,15.10
2022-08-29T17:43:48.685Z,15.10
2022-08-29T17:46:21.988Z,15.10
2022-08-29T17:48:49.330Z,15.10
2022-08-29T17:51:16.416Z,15.10
2022-08-29T17:53:44.146Z,15.10
2022-08-29T17:56:18.390Z,15.10
2022-08-29T17:58:45.392Z,15.00
2022-08-29T18:01:16.573Z,15.00
2022-08-29T18:03:45.520Z,15.10
2022-08-29T18:06:15.254Z,15.00
2022-08-29T18:08:47.820Z,15.00
2022-08-29T18:11:16.355Z,14.90
2022-08-29T18:13:45.236Z,14.80
2022-08-29T18:16:16.005Z,14.80
2022-08-29T18:18:44.523Z,14.80
2022-08-29T18:21:15.254Z,14.90
2022-08-29T18:23:45.024Z,14.70
2022-08-29T18:26:12.277Z,14.80
2022-08-29T18:28:41.104Z,14.80
2022-08-29T18:31:09.196Z,14.70
2022-08-29T18:33:57.214Z,14.70
2022-08-29T18:36:24.141Z,14.60
2022-08-29T18:38:51.474Z,14.50
2022-08-29T18:41:18.565Z,14.50
2022-08-29T18:43:45.719Z,14.40
2022-08-29T18:46:12.926Z,14.50
2022-08-29T18:48:41.242Z,14.40
2022-08-29T18:51:08.362Z,14.40
2022-08-29T18:53:35.323Z,14.50
2022-08-29T18:56:02.600Z,14.50
2022-08-29T18:58:32.929Z,14.40
2022-08-29T19:01:27.911Z,14.40
2022-08-29T19:04:00.512Z,14.30
2022-08-29T19:06:28.473Z,14.30
2022-08-29T19:08:56.805Z,14.40
2022-08-29T19:11:24.668Z,14.30
2022-08-29T19:13:52.354Z,14.30
2022-08-29T19:16:21.496Z,14.30
2022-08-29T19:18:48.644Z,14.20
2022-08-29T19:21:15.742Z,14.20
2022-08-29T19:23:52.482Z,14.20
2022-08-29T19:26:32.433Z,14.20
2022-08-29T19:29:04.997Z,14.20
2022-08-29T19:31:32.465Z,14.10
2022-08-29T19:34:04.294Z,14.10
2022-08-29T19:36:54.152Z,14.10
2022-08-29T19:39:21.959Z,14.10
2022-08-29T19:41:50.301Z,14.20
2022-08-29T19:44:17.706Z,14.10
2022-08-29T19:46:49.114Z,14.00
2022-08-29T19:49:16.813Z,14.10
2022-08-29T19:51:43.820Z,14.10
2022-08-29T19:54:12.603Z,14.00
2022-08-29T19:56:41.087Z,13.90
2022-08-29T19:59:14.605Z,13.80
2022-08-29T20:01:43.512Z,13.70
2022-08-29T20:04:10.536Z,13.70
2022-08-29T20:06:38.026Z,13.70
2022-08-29T20:09:06.064Z,13.70
2022-08-29T20:11:42.849Z,13.60
2022-08-29T20:14:11.300Z,13.60
2022-08-29T20:16:41.875Z,13.60
2022-08-29T20:19:09.453Z,13.60
2022-08-29T20:21:37.859Z,13.50
2022-08-29T20:24:05.537Z,13.50
2022-08-29T20:26:35.913Z,13.50
2022-08-29T20:29:09.350Z,13.50
2022-08-29T20:31:37.322Z,13.50
2022-08-29T20:34:04.801Z,13.40
2022-08-29T20:36:50.408Z,13.40
2022-08-29T20:39:19.239Z,13.40
2022-08-29T20:41:53.895Z,13.40
2022-08-29T20:44:21.402Z,13.40
2022-08-29T20:46:48.962Z,13.40
2022-08-29T20:49:22.004Z,13.40
2022-08-29T20:51:50.340Z,13.30
2022-08-29T20:54:25.141Z,13.40
2022-08-29T20:56:53.038Z,13.30
2022-08-29T20:59:22.453Z,13.40
2022-08-29T21:01:49.966Z,13.30
2022-08-29T21:04:36.265Z,13.30
2022-08-29T21:07:08.945Z,13.20
2022-08-29T21:09:36.939Z,13.20
2022-08-29T21:12:04.157Z,13.20
2022-08-29T21:14:31.245Z,13.20
2022-08-29T21:16:58.600Z,13.20
2022-08-29T21:19:29.789Z,13.10
2022-08-29T21:21:58.994Z,13.20
2022-08-29T21:24:26.723Z,13.10
2022-08-29T21:26:53.733Z,13.10
2022-08-29T21:29:20.861Z,13.10
2022-08-29T21:31:49.254Z,13.10
2022-08-29T21:34:20.106Z,13.20
2022-08-29T21:36:47.283Z,13.20
2022-08-29T21:39:19.622Z,13.10
2022-08-29T21:41:56.658Z,13.10
2022-08-29T21:44:23.918Z,13.10
2022-08-29T21:46:51.108Z,13.10
2022-08-29T21:49:21.611Z,13.10
2022-08-29T21:51:48.970Z,13.10
2022-08-29T21:54:17.160Z,12.90
2022-08-29T21:56:45.086Z,12.90
2022-08-29T21:59:13.331Z,13.00
2022-08-29T22:01:41.603Z,13.00
2022-08-29T22:04:11.526Z,12.90
2022-08-29T22:06:52.851Z,12.90
2022-08-29T22:09:20.042Z,12.90
2022-08-29T22:11:48.865Z,12.90
2022-08-29T22:14:15.826Z,12.90
2022-08-29T22:16:43.183Z,12.80
2022-08-29T22:19:15.234Z,12.90
2022-08-29T22:21:48.097Z,12.80
2022-08-29T22:24:17.341Z,12.80
2022-08-29T22:26:45.010Z,12.80
2022-08-29T22:29:14.234Z,12.80
2022-08-29T22:31:42.570Z,12.70
2022-08-29T22:34:11.246Z,12.80
2022-08-29T22:36:38.619Z,12.70
2022-08-29T22:39:06.225Z,12.70
2022-08-29T22:41:34.009Z,12.70
2022-08-29T22:44:42.452Z,12.70
2022-08-29T22:46:49.388Z,12.70
2022-08-29T22:49:16.552Z,12.60
2022-08-29T22:51:43.454Z,12.60
2022-08-29T22:54:28.986Z,12.70
2022-08-29T22:56:55.942Z,12.60
2022-08-29T22:59:23.041Z,12.70
2022-08-29T23:01:50.141Z,12.70
2022-08-29T23:04:17.484Z,12.60
2022-08-29T23:06:44.583Z,12.60
2022-08-29T23:09:13.122Z,12.50
2022-08-29T23:11:40.793Z,12.60
2022-08-29T23:14:08.496Z,12.50
2022-08-29T23:16:39.810Z,12.60
2022-08-29T23:19:07.032Z,12.50
2022-08-29T23:21:34.554Z,12.50
2022-08-29T23:24:08.052Z,12.50
2022-08-29T23:26:36.441Z,12.50
2022-08-29T23:29:04.501Z,12.60
2022-08-29T23:31:31.746Z,12.50
2022-08-29T23:33:58.758Z,12.60
2022-08-29T23:36:25.642Z,12.60
2022-08-29T23:38:52.857Z,12.50
2022-08-29T23:41:20.382Z,12.60
2022-08-29T23:43:47.413Z,12.50
2022-08-29T23:46:14.685Z,12.50
2022-08-29T23:48:41.722Z,12.40
2022-08-29T23:51:11.886Z,12.40
2022-08-29T23:53:39.041Z,12.40
2022-08-29T23:56:20.557Z,12.30
2022-08-29T23:58:47.899Z,12.40
